x

West Gulf - 207 Nm East Of Brownsville, Tx (42002) Wave Buoy

2:50pm - Tue 2nd Sep 2014 All times are CDT. -5 hours from GMT.

  • Sig Wave height 8.2ft
  • Swell Direction
  • Peak Period 10s
  • Average Period 6s
  • Wind
    13mph, 25mph gusts
  • Sea Temp 85°f
  • Air Temp 82°f
  • Sea Pressure 1013.5mb
  • West Gulf - 207 Nm East Of Brownsville, Tx
  • West Gulf - 207 Nm East Of Brownsville, Tx

More Historic Weather Station data

Upgrade to MSW Pro to gain access to the past 30 days of data for over 8000 Wavebouys and Weather Stations around the globe.

Join Pro

Comparision Forecast

View Surf forecast
   
Tue 09/02 2:50pm 8ft 10s 6s 13 25 mph 1013.5mb 85f 82f
1:50pm 8ft 10s 6s 22 27 mph 1013.8mb 85f 85f
12:50pm 8.5ft 10s 6s 22 27 mph 1014.2mb 85f 85f
11:50am 8ft 10s 6s 22 27 mph 1014.1mb 85f 85f
10:50am 8ft 10s 6s 20 22 mph 1014.1mb 85f 84f
9:50am 7ft 9s 6s 22 27 mph 1013.8mb 85f 84f
8:50am 6.5ft 8s 6s 16 18 mph 1014.1mb 85f 81f
7:50am 6.5ft 8s 6s 20 22 mph 1013.2mb 85f 83f
6:50am 6.5ft 8s 5s 20 25 mph 1012.9mb 85f 83f
5:50am 6ft 8s 5s 22 27 mph 1012.5mb 85f 84f
4:50am 6.5ft 8s 5s 20 22 mph 1012.5mb 85f 83f
3:50am 6.5ft 8s 5s 20 25 mph 1012.4mb 85f 83f
2:50am 6ft 8s 5s 22 31 mph 1012.8mb 85f 81f
1:50am 5.5ft 8s 5s 22 29 mph 1013.1mb 85f 84f
12:50am 5.5ft 7s 5s 22 29 mph 1013.5mb 85f 84f
Mon 09/01 11:50pm 5ft 6s 5s 22 27 mph 1013.6mb 85f 84f
10:50pm 5ft 6s 5s 22 27 mph 1013.7mb 85f 84f
9:50pm 4.5ft 7s 4s 22 25 mph 1013mb 85f 85f
8:50pm 4ft 7s 4s 20 25 mph 1012.8mb 85f 85f
7:50pm 4ft 6s 4s 13 16 mph 1012.5mb 85f 82f
6:50pm 4ft 6s 4s 18 22 mph 1012.1mb 85f 84f
5:50pm 4ft 6s 4s 18 20 mph 1011.8mb 85f 84f
4:50pm 4ft 6s 4s 20 25 mph 1012mb 85f 83f
3:50pm 3.5ft 6s 4s 20 25 mph 1012.6mb 85f 85f
2:50pm 3.5ft 6s 4s 18 20 mph 1013.1mb 85f 85f
1:50pm 3ft 6s 4s 16 18 mph 1013.7mb 85f 85f
12:50pm 3ft 6s 5s 13 18 mph 1014mb 85f 85f
11:50am 2.5ft 6s 5s 11 13 mph 1014.5mb 84f 84f
10:50am 2.5ft 6s 4s 11 13 mph 1014.5mb 84f 84f
9:50am 2.5ft 6s 4s 11 13 mph 1014.2mb 84f 84f
8:50am 2.5ft 6s 4s 11 13 mph 1014mb 84f 83f
7:50am 2.5ft 6s 4s 13
mph
1013.4mb 84f 84f
6:50am 2.5ft 6s 4s 11 13 mph 1013mb 84f 84f
5:50am 3ft 7s 4s 11 13 mph 1012.6mb 84f 84f
4:50am 2.5ft 7s 4s 9 11 mph 1012.5mb 84f 84f
3:50am 3ft 6s 4s 11 13 mph 1012.5mb 84f 84f
2:50am 3ft 4s 4s 11 13 mph 1012.8mb 84f 84f
1:50am 3ft 7s 4s 13 16 mph 1013mb 84f 84f
12:50am 3.5ft 6s 5s 16 18 mph 1013.5mb 84f 84f
Sun 08/31 11:50pm 3ft 6s 4s 13 16 mph 1013.9mb 84f 84f
10:50pm 3.5ft 7s 5s 16 18 mph 1014mb 84f 85f
9:50pm 3.5ft 7s 4s 18 20 mph 1013.7mb 84f 84f
8:50pm 3.5ft 8s 5s 13 16 mph 1013.5mb 84f 84f
7:50pm 3.5ft 7s 5s 16 20 mph 1013.3mb 85f 85f
6:50pm 3.5ft 6s 5s 13 16 mph 1013.6mb 85f 85f
5:50pm 3.5ft 7s 5s 11 13 mph 1013.9mb 85f 85f
4:50pm 3.5ft 6s 5s 11 13 mph 1013.7mb 85f 85f
3:50pm 3.5ft 7s 5s 11 13 mph 1014.1mb 85f 85f
2:50pm 3.5ft 7s 5s 11
mph
1014.6mb 85f 85f
1:50pm 3.5ft 7s 5s 11 13 mph 1015.2mb 85f 85f
12:50pm 3.5ft 6s 5s 11 13 mph 1015.4mb 86f 85f
11:50am 3.5ft 7s 5s 13 16 mph 1015.4mb 86f 85f
10:50am 3.5ft 6s 4s 16 18 mph 1015.5mb 86f 85f
9:50am 4ft 7s 5s 13 16 mph 1015.3mb 86f 85f
8:50am 3.5ft 7s 4s 13 16 mph 1014.8mb 86f 85f
7:50am 3.5ft 6s 5s 16
mph
1014.4mb 86f 85f
6:50am 3.5ft 7s 5s 16
mph
1014mb 86f 85f
5:50am 4ft 7s 5s 16 18 mph 1013.7mb 86f 84f
4:50am 4ft 7s 5s 18 20 mph 1013.7mb 86f 84f
3:50am 4ft 7s 5s 11 13 mph 1013.6mb 86f 84f
2:50am 4.5ft 8s 5s 13 16 mph 1013.9mb 86f 84f
1:50am 4.5ft 8s 6s 13 16 mph 1014.1mb 86f 85f
12:50am 4ft 7s 5s 13 16 mph 1014.6mb 86f 85f
Sat 08/30 11:50pm 4.5ft 8s 6s 13 16 mph 1015.3mb 86f 85f
10:50pm 4.5ft 7s 6s 13 16 mph 1015.5mb 86f 85f
9:50pm 4.5ft 8s 6s 7 9 mph 1015.3mb 86f 84f
8:50pm 4.5ft 8s 6s 7 9 mph 1014.5mb 86f 84f
7:50pm 5ft 7s 6s 2 7 mph 1014mb 86f 83f
6:50pm 4.5ft 7s 6s  -  mph 1014.1mb 86f 84f
5:50pm 5ft 7s 6s 4 7 mph 1013.7mb 86f 83f
4:50pm 5ft 7s 6s 9 11 mph 1013.2mb 86f 83f
3:50pm 5ft 8s 5s 13 16 mph 1013.6mb 86f 82f
2:50pm 5ft 7s 5s 18 27 mph 1014mb 86f 78f
1:50pm 5.5ft 7s 5s 18 22 mph 1014.1mb 86f 83f
12:50pm 6ft 7s 5s 18 20 mph 1014.3mb 86f 83f
11:50am 6ft 7s 5s 20 25 mph 1014.3mb 86f 83f
10:50am 5.5ft 7s 5s 27 31 mph 1014mb 86f 82f
9:50am 5ft 7s 5s 18 25 mph 1013.1mb 86f 84f
8:50am 5ft 7s 5s 18 22 mph 1012.9mb 86f 83f
7:50am 5ft 7s 5s 18 22 mph 1012.5mb 86f 84f
6:50am 5ft 7s 5s 20 25 mph 1011.9mb 86f 85f
5:50am 5ft 7s 5s 25 29 mph 1011.4mb 86f 85f
4:50am 4.5ft 7s 5s 20 25 mph 1011.4mb 86f 85f
3:50am 4ft 6s 5s 18 22 mph 1012mb 86f 84f
2:50am 4.5ft 7s 5s 18 22 mph 1011.8mb 86f 84f
1:50am 4.5ft 6s 5s 18 22 mph 1012mb 86f 84f
12:50am 4.5ft 7s 5s 16 20 mph 1012.3mb 86f 83f
Fri 08/29 11:50pm 4.5ft 7s 5s 18 22 mph 1012mb 86f 83f
10:50pm 3.5ft 6s 5s 16 20 mph 1012mb 85f 85f
9:50pm 3.5ft 6s 5s 11 13 mph 1012.3mb 85f 83f
8:50pm 4.5ft 6s 5s 13 16 mph 1011.6mb 85f 83f